createdAt,value
2023-05-22T00:01:22.690Z,79.30
2023-05-22T00:06:26.082Z,79.25
2023-05-22T00:11:28.973Z,81.58
2023-05-22T00:16:33.159Z,82.87
2023-05-22T00:21:37.597Z,82.02
2023-05-22T00:26:40.515Z,80.31
2023-05-22T00:31:44.748Z,81.84
2023-05-22T00:36:47.584Z,79.88
2023-05-22T00:41:50.662Z,81.51
2023-05-22T00:46:54.988Z,82.83
2023-05-22T00:51:58.258Z,83.17
2023-05-22T00:57:02.003Z,82.47
2023-05-22T01:02:06.835Z,82.64
2023-05-22T01:07:09.882Z,83.14
2023-05-22T01:12:24.372Z,83.71
2023-05-22T01:17:40.682Z,83.68
2023-05-22T01:23:16.228Z,83.97
2023-05-22T01:28:37.600Z,84.23
2023-05-22T01:33:46.522Z,84.33
2023-05-22T01:38:49.899Z,83.54
2023-05-22T01:43:53.080Z,83.78
2023-05-22T01:48:57.485Z,84.52
2023-05-22T01:54:06.330Z,83.37
2023-05-22T01:59:15.414Z,83.04
2023-05-22T02:04:21.388Z,83.92
2023-05-22T02:09:28.632Z,83.38
2023-05-22T02:14:31.664Z,82.31
2023-05-22T02:19:36.875Z,82.18
2023-05-22T02:24:41.561Z,81.32
2023-05-22T02:29:45.311Z,81.64
2023-05-22T02:34:49.436Z,82.00
2023-05-22T02:39:52.249Z,82.15
2023-05-22T02:44:55.134Z,82.20
2023-05-22T02:49:59.345Z,81.04
2023-05-22T02:55:02.292Z,80.33
2023-05-22T03:00:06.914Z,79.39
2023-05-22T03:05:11.532Z,80.28
2023-05-22T03:10:14.352Z,79.27
2023-05-22T03:15:17.399Z,78.73
2023-05-22T03:20:22.281Z,78.12
2023-05-22T03:25:25.183Z,77.93
2023-05-22T03:30:28.123Z,77.49
2023-05-22T03:35:46.696Z,77.17
2023-05-22T03:40:49.653Z,76.52
2023-05-22T03:45:52.576Z,76.32
2023-05-22T03:50:56.897Z,76.31
2023-05-22T03:55:59.744Z,76.27
2023-05-22T04:01:02.699Z,76.04
2023-05-22T04:06:07.572Z,75.43
2023-05-22T04:11:10.530Z,75.40
2023-05-22T04:16:13.549Z,75.11
2023-05-22T04:21:19.029Z,74.82
2023-05-22T04:26:21.982Z,74.20
2023-05-22T04:31:25.862Z,73.12
2023-05-22T04:36:31.151Z,72.50
2023-05-22T04:41:34.271Z,71.93
2023-05-22T04:46:37.299Z,70.67
2023-05-22T04:51:41.806Z,70.89
2023-05-22T04:56:44.729Z,70.92
2023-05-22T05:01:47.910Z,70.31
2023-05-22T05:06:52.830Z,67.80
2023-05-22T05:16:58.692Z,70.08
2023-05-22T05:22:03.246Z,69.17
2023-05-22T05:27:07.086Z,68.41
2023-05-22T05:32:12.988Z,67.83
2023-05-22T05:37:27.810Z,67.29
2023-05-22T05:42:34.630Z,66.34
2023-05-22T05:47:40.626Z,65.29
2023-05-22T05:52:45.396Z,65.09
2023-05-22T05:57:52.373Z,64.37
2023-05-22T06:03:02.070Z,63.02
2023-05-22T06:08:28.444Z,61.93
2023-05-22T06:13:31.535Z,60.96
2023-05-22T06:18:34.613Z,60.14
2023-05-22T06:23:39.013Z,60.32
2023-05-22T06:28:43.642Z,59.28
2023-05-22T06:33:47.414Z,58.90
2023-05-22T06:38:55.485Z,57.60
2023-05-22T06:44:18.316Z,57.89
2023-05-22T06:49:21.177Z,58.21
2023-05-22T06:54:29.593Z,59.02
2023-05-22T06:59:33.671Z,58.14
2023-05-22T07:04:42.104Z,57.83
2023-05-22T07:09:50.986Z,57.25
2023-05-22T07:14:54.237Z,56.87
2023-05-22T07:19:59.483Z,55.42
2023-05-22T07:25:05.103Z,56.33
2023-05-22T07:30:10.661Z,55.30
2023-05-22T07:35:15.474Z,55.78
2023-05-22T07:40:19.776Z,55.32
2023-05-22T07:45:22.910Z,53.58
2023-05-22T07:50:27.046Z,53.28
2023-05-22T07:55:31.494Z,52.21
2023-05-22T08:00:34.611Z,51.74
2023-05-22T08:05:37.492Z,50.57
2023-05-22T08:10:58.249Z,51.05
2023-05-22T08:16:04.835Z,50.26
2023-05-22T08:21:07.746Z,50.79
2023-05-22T08:26:11.985Z,48.93
2023-05-22T08:31:15.599Z,49.30
2023-05-22T08:36:18.507Z,48.20
2023-05-22T08:41:22.793Z,47.95
2023-05-22T08:46:29.021Z,47.07
2023-05-22T08:51:35.728Z,46.61
2023-05-22T08:56:53.051Z,46.84
2023-05-22T09:01:59.986Z,46.24
2023-05-22T09:07:05.959Z,44.80
2023-05-22T09:12:11.725Z,44.52
2023-05-22T09:17:17.169Z,44.50
2023-05-22T09:22:21.767Z,43.68
2023-05-22T09:27:27.185Z,43.87
2023-05-22T09:32:31.399Z,43.37
2023-05-22T09:37:35.838Z,42.88
2023-05-22T09:42:40.042Z,42.26
2023-05-22T09:47:43.188Z,40.91
2023-05-22T09:52:47.182Z,41.06
2023-05-22T09:57:53.484Z,42.79
2023-05-22T10:03:04.050Z,41.97
2023-05-22T10:08:11.939Z,41.99
2023-05-22T10:13:17.218Z,41.26
2023-05-22T10:18:20.028Z,39.57
2023-05-22T10:23:23.510Z,37.80
2023-05-22T10:28:36.292Z,39.13
2023-05-22T10:33:45.059Z,37.96
2023-05-22T10:39:05.310Z,38.24
2023-05-22T10:44:09.790Z,37.08
2023-05-22T10:49:22.410Z,36.96
2023-05-22T10:54:40.805Z,36.12
2023-05-22T10:59:45.280Z,37.21
2023-05-22T11:04:48.345Z,37.20
2023-05-22T11:10:00.920Z,36.14
2023-05-22T11:15:07.386Z,34.94
2023-05-22T11:20:15.950Z,35.71
2023-05-22T11:25:21.361Z,35.26
2023-05-22T11:30:28.420Z,36.58
2023-05-22T11:35:31.416Z,37.06
2023-05-22T11:40:34.185Z,35.88
2023-05-22T11:45:40.928Z,36.05
2023-05-22T11:50:44.810Z,36.33
2023-05-22T11:55:49.499Z,34.00
2023-05-22T12:00:53.795Z,33.90
2023-05-22T12:05:57.026Z,32.83
2023-05-22T12:10:59.980Z,34.43
2023-05-22T12:16:19.677Z,33.88
2023-05-22T12:21:23.019Z,33.23
2023-05-22T12:26:25.797Z,33.38
2023-05-22T12:31:35.788Z,32.99
2023-05-22T12:36:40.789Z,31.61
2023-05-22T12:41:44.362Z,38.71
2023-05-22T12:46:48.658Z,42.98
2023-05-22T12:51:51.450Z,41.76
2023-05-22T12:56:54.263Z,39.82
2023-05-22T13:02:02.155Z,40.20
2023-05-22T13:07:05.192Z,38.68
2023-05-22T13:12:10.217Z,39.21
2023-05-22T13:17:14.422Z,37.81
2023-05-22T13:22:17.312Z,37.04
2023-05-22T13:27:20.422Z,39.40
2023-05-22T13:32:24.654Z,42.38
2023-05-22T13:37:27.517Z,39.69
2023-05-22T13:42:30.403Z,44.68
2023-05-22T13:47:35.043Z,43.29
2023-05-22T13:52:37.997Z,41.96
2023-05-22T13:57:41.384Z,42.32
2023-05-22T14:02:46.474Z,39.73
2023-05-22T14:07:50.221Z,39.12
2023-05-22T14:12:54.480Z,39.02
2023-05-22T14:17:58.768Z,36.53
2023-05-22T14:23:01.676Z,38.16
2023-05-22T14:28:04.474Z,41.51
2023-05-22T14:33:08.684Z,44.47
2023-05-22T14:38:11.618Z,43.99
2023-05-22T14:43:14.507Z,46.90
2023-05-22T14:48:18.700Z,47.06
2023-05-22T14:53:21.738Z,46.46
2023-05-22T14:58:24.741Z,47.15
2023-05-22T15:03:29.202Z,47.27
2023-05-22T15:08:32.126Z,46.99
2023-05-22T15:13:35.008Z,46.59
2023-05-22T15:18:39.178Z,47.97
2023-05-22T15:23:43.222Z,46.80
2023-05-22T15:28:45.988Z,45.76
2023-05-22T15:33:50.457Z,46.00
2023-05-22T15:38:53.302Z,46.97
2023-05-22T15:43:56.153Z,46.89
2023-05-22T15:49:00.463Z,48.41
2023-05-22T15:54:03.290Z,78.38
2023-05-22T15:59:06.123Z,100.00
2023-05-22T16:04:10.359Z,100.00
2023-05-22T16:09:16.070Z,100.00
2023-05-22T16:14:18.948Z,100.00
2023-05-22T16:19:23.512Z,98.07
2023-05-22T16:24:26.578Z,97.07
2023-05-22T16:29:30.381Z,96.24
2023-05-22T16:34:34.840Z,97.32
2023-05-22T16:39:39.806Z,96.92
2023-05-22T16:44:42.931Z,100.00
2023-05-22T16:49:47.097Z,100.00
2023-05-22T16:54:49.907Z,100.00
2023-05-22T16:59:52.795Z,100.00
2023-05-22T17:04:58.168Z,100.00
2023-05-22T17:10:02.278Z,100.00
2023-05-22T17:15:05.935Z,100.00
2023-05-22T17:20:11.680Z,100.00
2023-05-22T17:25:14.461Z,100.00
2023-05-22T17:30:17.279Z,100.00
2023-05-22T17:35:21.540Z,100.00
2023-05-22T17:40:29.539Z,100.00
2023-05-22T17:45:44.624Z,100.00
2023-05-22T17:50:49.650Z,100.00
2023-05-22T17:55:53.254Z,100.00
2023-05-22T18:00:56.588Z,100.00
2023-05-22T18:06:00.796Z,100.00
2023-05-22T18:11:05.065Z,99.76
2023-05-22T18:16:08.134Z,100.00
2023-05-22T18:21:12.381Z,99.46
2023-05-22T18:26:15.187Z,100.00
2023-05-22T18:31:18.020Z,100.00
2023-05-22T18:36:22.668Z,98.44
2023-05-22T18:41:26.217Z,99.44
2023-05-22T18:46:29.144Z,99.95
2023-05-22T18:51:33.367Z,99.22
2023-05-22T18:56:36.710Z,100.00
2023-05-22T19:01:40.450Z,99.44
2023-05-22T19:06:45.890Z,99.87
2023-05-22T19:11:48.819Z,97.83
2023-05-22T19:16:51.753Z,98.00
2023-05-22T19:21:56.197Z,98.56
2023-05-22T19:26:59.110Z,96.83
2023-05-22T19:32:02.093Z,96.92
2023-05-22T19:37:06.517Z,96.51
2023-05-22T19:42:10.687Z,97.31
2023-05-22T19:47:13.536Z,97.05
2023-05-22T19:52:17.755Z,97.69
2023-05-22T19:57:20.785Z,97.40
2023-05-22T20:02:23.689Z,97.79
2023-05-22T20:07:27.842Z,97.19
2023-05-22T20:12:30.657Z,96.27
2023-05-22T20:17:33.820Z,96.41
2023-05-22T20:22:38.385Z,95.58
2023-05-22T20:27:41.361Z,96.36
2023-05-22T20:32:46.370Z,95.93
2023-05-22T20:37:53.317Z,96.09
2023-05-22T20:42:57.022Z,96.65
2023-05-22T20:48:00.434Z,96.59
2023-05-22T20:53:06.313Z,95.87
2023-05-22T20:58:09.271Z,95.64
2023-05-22T21:03:12.314Z,96.06
2023-05-22T21:08:16.552Z,97.27
2023-05-22T21:13:20.038Z,96.81
2023-05-22T21:18:23.084Z,96.44
2023-05-22T21:23:27.308Z,95.76
2023-05-22T21:28:30.425Z,96.67
2023-05-22T21:33:33.346Z,96.40
2023-05-22T21:38:37.553Z,95.98
2023-05-22T21:43:40.695Z,96.87
2023-05-22T21:48:43.400Z,96.37
2023-05-22T21:53:47.889Z,97.16
2023-05-22T21:58:50.625Z,96.96
2023-05-22T22:03:53.464Z,95.66
2023-05-22T22:08:59.680Z,97.87
2023-05-22T22:14:02.438Z,96.56
2023-05-22T22:19:05.411Z,95.74
2023-05-22T22:24:09.713Z,96.67
2023-05-22T22:29:12.783Z,97.93
2023-05-22T22:34:15.678Z,96.49
2023-05-22T22:39:19.899Z,94.29
2023-05-22T22:44:22.669Z,95.30
2023-05-22T22:49:25.568Z,95.08
2023-05-22T22:54:29.741Z,94.67
2023-05-22T22:59:33.645Z,94.97
2023-05-22T23:04:36.592Z,95.07
2023-05-22T23:09:40.980Z,94.52
2023-05-22T23:14:44.874Z,93.65
2023-05-22T23:19:47.845Z,94.20
2023-05-22T23:24:52.015Z,94.08
2023-05-22T23:29:54.790Z,93.83
2023-05-22T23:34:57.598Z,94.34
2023-05-22T23:40:01.946Z,93.01
2023-05-22T23:45:05.235Z,92.24
2023-05-22T23:50:08.917Z,91.79
2023-05-22T23:55:13.169Z,92.42
